createdAt,value
2019-04-04T00:00:57.765Z,5.107117
2019-04-04T00:02:07.461Z,5.076904
2019-04-04T00:03:19.021Z,5.066833
2019-04-04T00:04:27.821Z,5.066833
2019-04-04T00:05:37.355Z,5.097046
2019-04-04T00:06:46.907Z,5.076904
2019-04-04T00:07:58.038Z,5.097046
2019-04-04T00:09:06.890Z,5.097046
2019-04-04T00:10:16.400Z,5.097046
2019-04-04T00:11:25.922Z,5.097046
2019-04-04T00:12:36.945Z,5.097046
2019-04-04T00:13:45.931Z,5.076904
2019-04-04T00:14:55.418Z,5.046692
2019-04-04T00:16:04.920Z,5.016479
2019-04-04T00:17:15.430Z,4.986267
2019-04-04T00:18:25.462Z,4.966125
2019-04-04T00:19:34.422Z,4.935913
2019-04-04T00:20:43.928Z,4.925842
2019-04-04T00:21:53.425Z,4.925842
2019-04-04T00:23:04.975Z,4.885559
2019-04-04T00:24:13.429Z,4.855347
2019-04-04T00:25:22.930Z,4.815063
2019-04-04T00:26:32.435Z,4.77478
2019-04-04T00:27:43.930Z,4.744568
2019-04-04T00:28:52.439Z,4.744568
2019-04-04T00:30:01.951Z,4.744568
2019-04-04T00:31:11.452Z,4.714355
2019-04-04T00:32:21.658Z,4.714355
2019-04-04T00:33:30.478Z,4.744568
2019-04-04T00:34:39.986Z,4.754639
2019-04-04T00:35:49.497Z,4.784851
2019-04-04T00:36:59.000Z,4.815063
2019-04-04T00:38:08.556Z,4.815063
2019-04-04T00:39:18.051Z,4.784851
2019-04-04T00:40:27.573Z,4.77478
2019-04-04T00:41:37.084Z,4.734497
2019-04-04T00:42:47.777Z,4.684143
2019-04-04T00:43:56.097Z,4.674072
2019-04-04T00:45:05.609Z,4.664001
2019-04-04T00:46:15.136Z,4.633789
2019-04-04T00:47:24.644Z,4.664001
2019-04-04T00:48:34.728Z,4.633789
2019-04-04T00:49:43.636Z,4.633789
2019-04-04T00:50:53.137Z,4.623718
2019-04-04T00:52:02.634Z,4.623718
2019-04-04T00:53:12.353Z,4.623718
2019-04-04T00:54:21.658Z,4.633789
2019-04-04T00:55:31.157Z,4.633789
2019-04-04T00:56:40.667Z,4.664001
2019-04-04T00:57:50.741Z,4.684143
2019-04-04T00:58:59.685Z,4.674072
2019-04-04T01:00:09.197Z,4.633789
2019-04-04T01:01:18.713Z,4.633789
2019-04-04T01:02:28.214Z,4.603577
2019-04-04T01:03:37.727Z,4.583435
2019-04-04T01:04:47.233Z,4.593506
2019-04-04T01:05:56.754Z,4.583435
2019-04-04T01:07:06.246Z,4.553223
2019-04-04T01:08:15.774Z,4.533081
2019-04-04T01:09:25.280Z,4.52301
2019-04-04T01:10:34.787Z,4.52301
2019-04-04T01:11:44.293Z,4.533081
2019-04-04T01:12:53.820Z,4.553223
2019-04-04T01:14:03.316Z,4.553223
2019-04-04T01:15:12.817Z,4.553223
2019-04-04T01:16:22.335Z,4.52301
2019-04-04T01:17:32.991Z,4.502869
2019-04-04T01:18:42.381Z,4.502869
2019-04-04T01:19:51.870Z,4.502869
2019-04-04T01:21:01.397Z,4.492798
2019-04-04T01:22:10.911Z,4.492798
2019-04-04T01:23:20.423Z,4.452515
2019-04-04T01:24:29.989Z,4.442444
2019-04-04T01:25:39.412Z,4.402161
2019-04-04T01:26:48.913Z,4.382019
2019-04-04T01:27:58.438Z,4.351807
2019-04-04T01:29:10.868Z,4.351807
2019-04-04T01:30:18.421Z,4.371948
2019-04-04T01:31:27.927Z,4.351807
2019-04-04T01:32:37.439Z,4.351807
2019-04-04T01:33:50.767Z,4.311523
2019-04-04T01:34:57.441Z,4.311523
2019-04-04T01:36:06.947Z,4.341736
2019-04-04T01:37:16.457Z,4.351807
2019-04-04T01:38:28.772Z,4.341736
2019-04-04T01:39:36.457Z,4.321594
2019-04-04T01:40:45.968Z,4.311523
2019-04-04T01:41:55.467Z,4.281311
2019-04-04T01:43:08.804Z,4.261169
2019-04-04T01:44:15.462Z,4.220886
2019-04-04T01:45:24.971Z,4.190674
2019-04-04T01:46:34.474Z,4.14032
2019-04-04T01:47:45.920Z,4.120178
2019-04-04T01:48:54.482Z,4.100037
2019-04-04T01:50:04.065Z,4.049683
2019-04-04T01:51:13.497Z,4.009399
2019-04-04T01:52:23.990Z,4.009399
2019-04-04T01:53:33.501Z,4.009399
2019-04-04T01:54:43.007Z,3.989258
2019-04-04T01:55:52.511Z,4.01947
2019-04-04T01:57:02.013Z,4.009399
2019-04-04T01:58:11.524Z,4.01947
2019-04-04T01:59:21.037Z,4.01947
2019-04-04T02:00:30.543Z,4.039612
2019-04-04T02:01:40.046Z,4.049683
2019-04-04T02:02:49.903Z,4.049683
2019-04-04T02:03:59.057Z,4.039612
2019-04-04T02:05:08.584Z,4.049683
2019-04-04T02:06:18.092Z,4.059753
2019-04-04T02:07:29.702Z,4.079895
2019-04-04T02:08:38.125Z,4.120178
2019-04-04T02:09:47.637Z,4.130249
2019-04-04T02:10:57.137Z,4.160461
2019-04-04T02:12:07.848Z,4.220886
2019-04-04T02:13:16.195Z,4.241028
2019-04-04T02:14:25.704Z,4.281311
2019-04-04T02:15:35.210Z,4.301453
2019-04-04T02:16:50.752Z,4.301453
2019-04-04T02:17:55.192Z,4.341736
2019-04-04T02:19:04.711Z,4.341736
2019-04-04T02:20:14.244Z,4.341736
2019-04-04T02:21:23.745Z,4.351807
2019-04-04T02:22:33.240Z,4.351807
2019-04-04T02:23:42.752Z,4.341736
2019-04-04T02:24:52.253Z,4.382019
2019-04-04T02:26:04.690Z,4.382019
2019-04-04T02:27:12.258Z,4.422302
2019-04-04T02:28:21.772Z,4.422302
2019-04-04T02:29:31.347Z,4.452515
2019-04-04T02:30:41.875Z,4.452515
2019-04-04T02:31:53.490Z,4.452515
2019-04-04T02:33:00.871Z,4.452515
2019-04-04T02:34:10.361Z,4.482727
2019-04-04T02:35:19.863Z,4.502869
2019-04-04T02:36:29.367Z,4.52301
2019-04-04T02:37:38.891Z,4.52301
2019-04-04T02:38:48.388Z,4.502869
2019-04-04T02:39:58.892Z,4.502869
2019-04-04T02:41:09.378Z,4.52301
2019-04-04T02:42:22.066Z,4.563293
2019-04-04T02:43:28.687Z,4.593506
2019-04-04T02:44:37.867Z,4.583435
2019-04-04T02:45:47.370Z,4.583435
2019-04-04T02:46:56.874Z,4.623718
2019-04-04T02:48:06.391Z,4.633789
2019-04-04T02:49:15.909Z,4.633789
2019-04-04T02:50:26.399Z,4.664001
2019-04-04T02:51:39.928Z,4.664001
2019-04-04T02:52:46.932Z,4.664001
2019-04-04T02:53:56.895Z,4.664001
2019-04-04T02:55:06.401Z,4.684143
2019-04-04T02:56:15.904Z,4.684143
2019-04-04T02:57:25.407Z,4.734497
2019-04-04T02:58:34.913Z,4.744568
2019-04-04T02:59:45.419Z,4.744568
2019-04-04T03:00:59.088Z,4.77478
2019-04-04T03:02:05.721Z,4.784851
2019-04-04T03:03:13.884Z,4.804993
2019-04-04T03:04:23.400Z,4.855347
2019-04-04T03:05:32.908Z,4.865417
2019-04-04T03:06:42.433Z,4.865417
2019-04-04T03:07:51.939Z,4.855347
2019-04-04T03:09:02.431Z,4.855347
2019-04-04T03:10:15.009Z,4.835205
2019-04-04T03:11:22.659Z,4.815063
2019-04-04T03:12:30.923Z,4.815063
2019-04-04T03:13:40.434Z,4.804993
2019-04-04T03:14:50.618Z,4.784851
2019-04-04T03:15:59.445Z,4.754639
2019-04-04T03:17:08.956Z,4.754639
2019-04-04T03:18:18.459Z,4.77478
2019-04-04T03:19:28.046Z,4.754639
2019-04-04T03:20:37.545Z,4.77478
2019-04-04T03:21:48.038Z,4.754639
2019-04-04T03:23:00.031Z,4.744568
2019-04-04T03:24:07.253Z,4.714355
2019-04-04T03:25:16.539Z,4.734497
2019-04-04T03:26:26.044Z,4.734497
2019-04-04T03:27:35.560Z,4.744568
2019-04-04T03:28:45.049Z,4.754639
2019-04-04T03:29:54.571Z,4.804993
2019-04-04T03:31:04.278Z,4.815063
2019-04-04T03:32:15.857Z,4.855347
2019-04-04T03:33:28.908Z,4.835205
2019-04-04T03:34:33.537Z,4.855347
2019-04-04T03:35:44.045Z,4.835205
2019-04-04T03:36:53.549Z,4.855347
2019-04-04T03:38:04.047Z,4.855347
2019-04-04T03:39:19.094Z,4.865417
2019-04-04T03:40:25.542Z,4.885559
2019-04-04T03:41:35.761Z,4.885559
2019-04-04T03:42:44.246Z,4.885559
2019-04-04T03:43:52.514Z,4.89563
2019-04-04T03:45:02.032Z,4.89563
2019-04-04T03:46:11.530Z,4.89563
2019-04-04T03:47:22.025Z,4.885559
2019-04-04T03:48:31.533Z,4.915771
2019-04-04T03:49:41.060Z,4.89563
2019-04-04T03:50:50.624Z,4.89563
2019-04-04T03:52:01.107Z,4.89563
2019-04-04T03:53:16.129Z,4.915771
2019-04-04T03:54:23.212Z,4.885559
2019-04-04T03:55:30.591Z,4.885559
2019-04-04T03:56:40.109Z,4.865417
2019-04-04T03:57:51.817Z,4.835205
2019-04-04T03:59:00.002Z,4.835205
2019-04-04T04:00:08.593Z,4.784851
2019-04-04T04:01:18.091Z,4.744568
2019-04-04T04:02:27.595Z,4.744568
2019-04-04T04:03:37.098Z,4.714355
2019-04-04T04:04:46.602Z,4.734497
2019-04-04T04:05:56.131Z,4.744568
2019-04-04T04:07:06.632Z,4.714355
2019-04-04T04:08:16.119Z,4.674072
2019-04-04T04:09:26.313Z,4.593506
2019-04-04T04:10:35.112Z,4.563293
2019-04-04T04:11:44.610Z,4.563293
2019-04-04T04:12:54.110Z,4.583435
2019-04-04T04:14:03.645Z,4.603577
2019-04-04T04:15:13.147Z,4.664001
2019-04-04T04:16:22.677Z,4.674072
2019-04-04T04:17:36.178Z,4.684143
2019-04-04T04:18:43.658Z,4.704285
2019-04-04T04:19:54.135Z,4.684143
2019-04-04T04:21:09.561Z,4.684143
2019-04-04T04:22:17.952Z,4.684143
2019-04-04T04:23:24.213Z,4.684143
2019-04-04T04:24:33.131Z,4.664001
2019-04-04T04:25:42.654Z,4.674072
2019-04-04T04:26:52.152Z,4.664001
2019-04-04T04:28:03.090Z,4.704285
2019-04-04T04:29:11.160Z,4.734497
2019-04-04T04:30:20.666Z,4.744568
2019-04-04T04:31:30.197Z,4.744568
2019-04-04T04:32:39.701Z,4.754639
2019-04-04T04:33:49.209Z,4.77478
2019-04-04T04:34:59.719Z,4.784851
2019-04-04T04:36:11.461Z,4.784851
2019-04-04T04:37:20.342Z,4.804993
2019-04-04T04:38:29.194Z,4.784851
2019-04-04T04:39:41.292Z,4.804993
2019-04-04T04:40:48.247Z,4.754639
2019-04-04T04:41:57.725Z,4.784851
2019-04-04T04:43:07.255Z,4.804993
2019-04-04T04:44:16.736Z,4.784851
2019-04-04T04:45:26.254Z,4.784851
2019-04-04T04:46:35.765Z,4.804993
2019-04-04T04:47:45.288Z,4.804993
2019-04-04T04:48:55.788Z,4.804993
2019-04-04T04:50:08.476Z,4.804993
2019-04-04T04:51:14.764Z,4.804993
2019-04-04T04:52:24.262Z,4.804993
2019-04-04T04:53:33.765Z,4.804993
2019-04-04T04:54:43.265Z,4.804993
2019-04-04T04:55:53.757Z,4.835205
2019-04-04T04:57:03.880Z,4.815063
2019-04-04T04:58:13.744Z,4.804993
2019-04-04T04:59:23.250Z,4.815063
2019-04-04T05:00:32.749Z,4.855347
2019-04-04T05:01:42.264Z,4.855347
2019-04-04T05:02:53.058Z,4.865417
2019-04-04T05:04:02.601Z,4.835205
2019-04-04T05:05:10.751Z,4.855347
2019-04-04T05:06:20.267Z,4.865417
2019-04-04T05:07:29.764Z,4.855347
2019-04-04T05:08:41.008Z,4.815063
2019-04-04T05:09:49.742Z,4.835205
2019-04-04T05:10:59.251Z,4.804993
2019-04-04T05:12:08.754Z,4.815063
2019-04-04T05:13:18.258Z,4.784851
2019-04-04T05:14:29.754Z,4.77478
2019-04-04T05:15:38.333Z,4.77478
2019-04-04T05:16:47.838Z,4.784851
2019-04-04T05:17:57.340Z,4.784851
2019-04-04T05:19:06.840Z,4.784851
2019-04-04T05:20:16.352Z,4.815063
2019-04-04T05:21:28.798Z,4.835205
2019-04-04T05:22:39.633Z,4.835205
2019-04-04T05:23:46.960Z,4.885559
2019-04-04T05:25:07.730Z,4.89563
2019-04-04T05:26:05.800Z,4.935913
2019-04-04T05:27:15.300Z,4.996338
2019-04-04T05:28:24.801Z,5.016479
2019-04-04T05:29:34.295Z,5.046692
2019-04-04T05:30:45.059Z,5.076904
2019-04-04T05:31:54.343Z,5.117188
2019-04-04T05:33:03.856Z,5.137329
2019-04-04T05:34:13.341Z,5.117188
2019-04-04T05:35:22.873Z,5.167542
2019-04-04T05:36:35.851Z,5.167542
2019-04-04T05:37:43.104Z,5.137329
2019-04-04T05:38:53.100Z,5.177612
2019-04-04T05:40:02.584Z,5.227966
2019-04-04T05:41:12.123Z,5.258179
2019-04-04T05:42:21.609Z,5.27832
2019-04-04T05:43:32.117Z,5.318604
2019-04-04T05:44:42.323Z,5.358887
2019-04-04T05:45:51.115Z,5.328674
2019-04-04T05:47:00.636Z,5.348816
2019-04-04T05:48:10.146Z,5.328674
2019-04-04T05:49:19.642Z,5.197754
2019-04-04T05:50:29.131Z,5.107117
2019-04-04T05:51:38.663Z,5.117188
2019-04-04T05:52:49.132Z,5.117188
2019-04-04T05:53:58.659Z,5.137329
2019-04-04T05:55:10.774Z,5.036621
2019-04-04T05:56:18.657Z,5.036621
2019-04-04T05:57:28.145Z,4.996338
2019-04-04T05:58:37.652Z,5.016479
2019-04-04T05:59:47.146Z,5.016479
2019-04-04T06:00:57.772Z,5.016479
2019-04-04T06:02:06.132Z,5.046692
2019-04-04T06:03:15.914Z,4.986267
2019-04-04T06:04:25.149Z,4.956055
2019-04-04T06:05:34.641Z,4.986267
2019-04-04T06:06:44.210Z,4.996338
2019-04-04T06:07:54.697Z,4.966125
2019-04-04T06:09:04.194Z,4.925842
2019-04-04T06:10:17.969Z,4.915771
2019-04-04T06:11:24.174Z,4.925842
2019-04-04T06:12:33.678Z,4.935913
2019-04-04T06:13:43.170Z,4.966125
2019-04-04T06:14:52.665Z,5.036621
2019-04-04T06:16:04.188Z,5.076904
2019-04-04T06:17:11.672Z,5.117188
2019-04-04T06:18:21.167Z,5.167542
2019-04-04T06:19:30.669Z,5.207825
2019-04-04T06:20:40.169Z,5.27832
2019-04-04T06:21:49.890Z,5.379028
2019-04-04T06:22:59.193Z,5.469666
2019-04-04T06:24:08.684Z,5.540161
2019-04-04T06:25:18.192Z,5.590515
2019-04-04T06:26:27.695Z,5.640869
2019-04-04T06:27:40.203Z,5.620728
2019-04-04T06:28:47.702Z,5.661011
2019-04-04T06:29:57.208Z,5.711365
2019-04-04T06:31:06.711Z,5.721436
2019-04-04T06:32:16.220Z,5.711365
2019-04-04T06:33:25.716Z,5.640869
2019-04-04T06:34:36.205Z,5.661011
2019-04-04T06:35:47.802Z,5.681152
2019-04-04T06:36:55.226Z,5.711365
2019-04-04T06:38:04.722Z,5.751648
2019-04-04T06:39:14.222Z,5.832214
2019-04-04T06:40:24.715Z,5.892639
2019-04-04T06:41:34.205Z,5.90271
2019-04-04T06:42:43.733Z,5.90271
2019-04-04T06:43:53.241Z,5.872498
2019-04-04T06:45:02.746Z,5.912781
2019-04-04T06:46:12.236Z,6.02356
2019-04-04T06:47:23.089Z,6.114197
2019-04-04T06:48:33.698Z,6.114197
2019-04-04T06:49:44.439Z,6.224976
2019-04-04T06:50:52.192Z,6.295471
2019-04-04T06:52:01.713Z,6.376038
2019-04-04T06:53:11.208Z,6.446533
2019-04-04T06:54:25.033Z,6.476746
2019-04-04T06:55:31.186Z,6.517029
2019-04-04T06:56:40.676Z,6.587524
2019-04-04T06:57:51.336Z,6.668091
2019-04-04T06:58:59.719Z,6.77887
2019-04-04T07:00:10.217Z,6.889648
2019-04-04T07:01:21.823Z,6.990356
2019-04-04T07:02:29.213Z,7.070923
2019-04-04T07:03:38.716Z,7.151489
2019-04-04T07:04:48.216Z,7.232056
2019-04-04T07:05:57.715Z,7.252197
2019-04-04T07:07:07.235Z,7.252197
2019-04-04T07:08:16.723Z,7.29248
2019-04-04T07:09:26.220Z,7.352905
2019-04-04T07:10:36.717Z,7.403259
2019-04-04T07:11:47.211Z,7.514038
2019-04-04T07:13:09.623Z,7.655029
2019-04-04T07:14:07.226Z,7.755737
2019-04-04T07:15:16.723Z,7.765808
2019-04-04T07:16:26.222Z,7.695312
2019-04-04T07:17:39.872Z,7.715454
2019-04-04T07:18:46.209Z,7.816162
2019-04-04T07:19:55.739Z,7.947083
2019-04-04T07:21:05.219Z,8.098145
2019-04-04T07:22:14.735Z,8.118286
2019-04-04T07:23:27.627Z,8.239136
2019-04-04T07:24:34.692Z,8.410339
2019-04-04T07:25:44.198Z,8.480835
2019-04-04T07:26:54.677Z,8.561401
2019-04-04T07:28:04.191Z,8.732605
2019-04-04T07:29:13.688Z,8.873596
2019-04-04T07:30:26.003Z,8.92395
2019-04-04T07:31:37.987Z,9.095154
2019-04-04T07:32:43.166Z,9.276428
2019-04-04T07:33:52.664Z,9.246216
2019-04-04T07:35:02.169Z,9.367065
2019-04-04T07:36:11.676Z,9.508057
2019-04-04T07:37:22.050Z,9.558411
2019-04-04T07:38:30.693Z,9.729614
2019-04-04T07:39:40.186Z,9.910889
2019-04-04T07:40:50.674Z,9.80011
2019-04-04T07:42:00.181Z,9.830322
2019-04-04T07:43:09.699Z,9.991455
2019-04-04T07:44:21.108Z,10.05188
2019-04-04T07:45:29.674Z,10.354004
2019-04-04T07:46:41.137Z,10.4245
2019-04-04T07:47:49.660Z,10.565491
2019-04-04T07:48:59.162Z,10.817261
2019-04-04T07:50:08.659Z,11.038818
2019-04-04T07:51:18.162Z,11.220093
2019-04-04T07:52:28.648Z,11.371155
2019-04-04T07:53:38.156Z,11.572571
2019-04-04T07:54:47.685Z,11.81427
2019-04-04T07:55:57.158Z,12.015686
2019-04-04T07:57:06.657Z,12.06604
2019-04-04T07:58:16.191Z,12.116394
2019-04-04T07:59:25.687Z,12.267456
2019-04-04T08:00:35.179Z,12.368164
2019-04-04T08:01:50.823Z,12.176819
2019-04-04T08:02:54.176Z,12.166748
2019-04-04T08:04:06.475Z,12.166748
2019-04-04T08:05:13.488Z,12.146606
2019-04-04T08:06:22.673Z,12.166748
2019-04-04T08:07:32.175Z,12.217102
2019-04-04T08:08:41.692Z,12.277527
2019-04-04T08:09:51.191Z,12.31781
2019-04-04T08:11:00.696Z,12.468872
2019-04-04T08:12:10.196Z,12.579651
2019-04-04T08:13:19.709Z,12.730713
2019-04-04T08:14:29.221Z,12.831421
2019-04-04T08:15:38.720Z,12.982483
2019-04-04T08:16:48.219Z,13.012695
2019-04-04T08:17:57.714Z,13.153687
2019-04-04T08:19:07.223Z,13.19397
2019-04-04T08:20:16.723Z,13.183899
2019-04-04T08:21:26.223Z,13.274536
2019-04-04T08:22:35.731Z,13.385315
2019-04-04T08:23:45.243Z,13.375244
2019-04-04T08:24:54.747Z,13.455811
2019-04-04T08:26:04.244Z,13.596802
2019-04-04T08:27:13.736Z,13.616943
2019-04-04T08:28:23.251Z,13.707581
2019-04-04T08:29:32.748Z,13.888855
2019-04-04T08:30:42.247Z,14.029846
2019-04-04T08:31:51.748Z,14.100342
2019-04-04T08:33:01.252Z,14.20105
2019-04-04T08:34:10.765Z,14.362183
2019-04-04T08:35:20.265Z,14.483032
2019-04-04T08:36:29.765Z,14.362183
2019-04-04T08:37:39.262Z,14.402466
2019-04-04T08:38:48.777Z,14.533386
2019-04-04T08:39:58.279Z,14.664307
2019-04-04T08:41:07.780Z,14.83551
2019-04-04T08:42:17.286Z,14.996643
2019-04-04T08:43:26.838Z,15.177917
2019-04-04T08:44:36.354Z,15.187988
2019-04-04T08:45:45.848Z,15.278625
2019-04-04T08:46:55.799Z,15.328979
2019-04-04T08:48:04.863Z,15.399475
2019-04-04T08:49:14.386Z,15.429688
2019-04-04T08:50:23.881Z,15.59082
2019-04-04T08:51:33.380Z,15.681458
2019-04-04T08:52:42.916Z,15.731812
2019-04-04T08:53:52.432Z,15.903015
2019-04-04T08:55:01.945Z,16.003723
2019-04-04T08:56:11.440Z,16.023865
2019-04-04T08:57:20.942Z,16.003723
2019-04-04T08:58:30.438Z,15.983582
2019-04-04T08:59:39.960Z,15.983582
2019-04-04T09:00:49.465Z,16.154785
2019-04-04T09:01:58.967Z,16.356201
2019-04-04T09:03:08.461Z,16.557617
2019-04-04T09:04:17.978Z,16.607971
2019-04-04T09:05:27.472Z,16.577759
2019-04-04T09:06:36.977Z,16.376343
2019-04-04T09:07:46.480Z,16.205139
2019-04-04T09:08:56.012Z,16.154785
2019-04-04T09:10:05.511Z,15.913086
2019-04-04T09:11:15.033Z,15.923157
2019-04-04T09:12:24.545Z,15.973511
2019-04-04T09:13:34.054Z,16.003723
2019-04-04T09:14:43.571Z,16.003723
2019-04-04T09:15:53.069Z,16.124573
2019-04-04T09:17:02.569Z,16.255493
2019-04-04T09:18:12.071Z,16.426697
2019-04-04T09:19:21.591Z,16.497192
2019-04-04T09:20:31.111Z,16.557617
2019-04-04T09:21:40.621Z,16.748962
2019-04-04T09:22:50.129Z,16.859741
2019-04-04T09:24:00.729Z,16.789246
2019-04-04T09:25:10.540Z,16.557617
2019-04-04T09:26:18.644Z,16.174927
2019-04-04T09:27:28.148Z,16.08429
2019-04-04T09:28:37.648Z,16.09436
2019-04-04T09:29:47.166Z,15.862732
2019-04-04T09:30:56.666Z,15.822449
2019-04-04T09:32:06.171Z,15.570679
2019-04-04T09:33:15.663Z,15.570679
2019-04-04T09:34:25.185Z,15.570679
2019-04-04T09:35:34.684Z,15.510254
2019-04-04T09:36:44.193Z,15.399475
2019-04-04T09:37:53.687Z,15.4599
2019-04-04T09:39:03.259Z,15.469971
2019-04-04T09:40:12.749Z,15.349121
2019-04-04T09:41:22.248Z,15.328979
2019-04-04T09:42:31.745Z,15.419617
2019-04-04T09:43:41.251Z,15.057068
2019-04-04T09:44:50.768Z,14.513245
2019-04-04T09:46:00.268Z,14.372253
2019-04-04T09:47:09.767Z,14.321899
2019-04-04T09:48:19.267Z,14.634094
2019-04-04T09:49:28.778Z,14.815369
2019-04-04T09:50:38.287Z,14.624023
2019-04-04T09:51:47.792Z,14.472961
2019-04-04T09:52:57.300Z,14.372253
2019-04-04T09:54:06.796Z,14.049988
2019-04-04T09:55:16.334Z,13.788147
2019-04-04T09:56:25.831Z,13.647156
2019-04-04T09:57:35.333Z,13.868713
2019-04-04T09:58:44.834Z,13.858643
2019-04-04T09:59:55.344Z,13.82843
2019-04-04T10:01:06.529Z,14.029846
2019-04-04T10:02:14.329Z,13.959351
2019-04-04T10:03:23.833Z,13.647156
2019-04-04T10:04:33.348Z,13.737793
2019-04-04T10:05:42.845Z,13.929138
2019-04-04T10:06:52.346Z,13.677368
2019-04-04T10:08:01.848Z,13.94928
2019-04-04T10:09:15.776Z,13.808289
2019-04-04T10:10:20.834Z,13.768005
2019-04-04T10:11:30.339Z,13.919067
2019-04-04T10:12:39.841Z,14.180908
2019-04-04T10:13:49.345Z,14.432678
2019-04-04T10:14:58.861Z,14.483032
2019-04-04T10:16:08.366Z,14.58374
2019-04-04T10:17:17.866Z,14.775085
2019-04-04T10:18:27.368Z,14.513245
2019-04-04T10:19:36.881Z,14.070129
2019-04-04T10:20:46.410Z,13.566589
2019-04-04T10:21:55.906Z,13.647156
2019-04-04T10:23:05.425Z,13.808289
2019-04-04T10:24:14.903Z,14.029846
2019-04-04T10:25:24.429Z,14.170837
2019-04-04T10:26:33.935Z,14.0802
2019-04-04T10:27:43.442Z,14.100342
2019-04-04T10:28:52.953Z,14.291687
2019-04-04T10:30:02.476Z,13.868713
2019-04-04T10:31:11.971Z,13.526306
2019-04-04T10:32:21.473Z,13.566589
2019-04-04T10:33:30.974Z,13.667297
2019-04-04T10:34:41.469Z,13.717651
2019-04-04T10:35:50.968Z,13.556519
2019-04-04T10:37:00.474Z,13.747864
2019-04-04T10:38:09.982Z,14.20105
2019-04-04T10:39:28.526Z,14.664307
2019-04-04T10:40:29.969Z,14.593811
2019-04-04T10:41:39.474Z,14.261475
2019-04-04T10:42:48.977Z,13.778076
2019-04-04T10:43:58.475Z,13.82843
2019-04-04T10:45:08.010Z,13.788147
2019-04-04T10:46:17.521Z,13.707581
2019-04-04T10:47:27.021Z,14.170837
2019-04-04T10:48:36.526Z,14.281616
2019-04-04T10:49:46.025Z,14.150696
2019-04-04T10:50:55.545Z,14.553528
2019-04-04T10:52:05.049Z,14.654236
2019-04-04T10:53:14.545Z,14.33197
2019-04-04T10:54:24.033Z,14.321899
2019-04-04T10:55:33.541Z,14.180908
2019-04-04T10:56:43.036Z,14.483032
2019-04-04T10:57:52.529Z,14.654236
2019-04-04T10:59:02.035Z,14.58374
2019-04-04T11:00:11.538Z,14.503174
2019-04-04T11:01:21.058Z,14.150696
2019-04-04T11:02:30.561Z,14.0802
2019-04-04T11:03:40.063Z,14.412537
2019-04-04T11:04:49.571Z,15.016785
2019-04-04T11:05:59.095Z,15.389404
2019-04-04T11:07:08.602Z,15.490112
2019-04-04T11:08:18.101Z,15.641174
2019-04-04T11:09:27.605Z,15.903015
2019-04-04T11:10:38.093Z,16.003723
2019-04-04T11:11:47.595Z,15.772095
2019-04-04T11:12:57.099Z,15.721741
2019-04-04T11:14:06.587Z,15.651245
2019-04-04T11:15:16.086Z,15.490112
2019-04-04T11:16:30.205Z,14.996643
2019-04-04T11:17:35.097Z,14.815369
2019-04-04T11:18:44.599Z,14.845581
2019-04-04T11:19:54.099Z,15.20813
2019-04-04T11:21:03.616Z,14.261475
2019-04-04T11:22:13.142Z,13.929138
2019-04-04T11:23:22.638Z,14.33197
2019-04-04T11:24:32.134Z,14.624023
2019-04-04T11:25:41.668Z,15.067139
2019-04-04T11:26:51.166Z,15.268555
2019-04-04T11:28:01.663Z,15.278625
2019-04-04T11:29:11.164Z,15.238342
2019-04-04T11:30:20.679Z,15.510254
2019-04-04T11:31:30.224Z,15.540466
2019-04-04T11:32:39.700Z,15.903015
2019-04-04T11:33:50.188Z,15.681458
2019-04-04T11:34:59.688Z,15.429688
2019-04-04T11:36:09.206Z,15.288696
2019-04-04T11:37:18.711Z,14.936218
2019-04-04T11:38:28.217Z,14.966431
2019-04-04T11:39:37.720Z,14.593811
2019-04-04T11:40:48.210Z,14.664307
2019-04-04T11:41:57.713Z,15.057068
2019-04-04T11:43:07.211Z,15.510254
2019-04-04T11:44:16.707Z,15.903015
2019-04-04T11:45:26.346Z,16.325989
2019-04-04T11:46:35.864Z,16.759033
2019-04-04T11:47:45.362Z,16.678467
2019-04-04T11:48:54.862Z,16.759033
2019-04-04T11:50:04.362Z,16.648254
2019-04-04T11:51:13.873Z,16.759033
2019-04-04T11:52:23.376Z,17.161865
2019-04-04T11:53:32.883Z,17.423706
2019-04-04T11:54:42.380Z,17.453918
2019-04-04T11:55:51.909Z,17.051086
2019-04-04T11:57:01.427Z,17.010803
2019-04-04T11:58:10.925Z,16.789246
2019-04-04T11:59:20.429Z,16.789246
2019-04-04T12:00:29.939Z,16.960449
2019-04-04T12:01:39.448Z,17.161865
2019-04-04T12:02:48.954Z,17.494202
2019-04-04T12:03:58.451Z,17.242432
2019-04-04T12:05:14.997Z,17.111511
2019-04-04T12:06:24.530Z,17.564697
2019-04-04T12:07:34.057Z,17.735901
2019-04-04T12:08:43.579Z,18.027954
2019-04-04T12:09:53.094Z,17.826538
2019-04-04T12:11:03.648Z,17.312927
2019-04-04T12:12:13.167Z,17.514343
2019-04-04T12:13:22.693Z,17.645264
2019-04-04T12:14:32.232Z,17.363281
2019-04-04T12:15:41.778Z,17.695618
2019-04-04T12:16:51.295Z,18.108521
2019-04-04T12:18:00.827Z,18.380432
2019-04-04T12:19:10.346Z,18.078308
2019-04-04T12:20:19.876Z,17.494202
2019-04-04T12:21:29.411Z,17.494202
2019-04-04T12:22:38.924Z,17.947388
2019-04-04T12:23:51.289Z,18.400574
2019-04-04T12:24:58.037Z,18.753052
2019-04-04T12:26:07.615Z,19.135742
2019-04-04T12:27:17.161Z,18.954468
2019-04-04T12:28:26.730Z,19.407654
2019-04-04T12:29:36.278Z,19.447937
2019-04-04T12:30:45.848Z,19.186096
2019-04-04T12:31:55.447Z,19.216309
2019-04-04T12:33:04.964Z,19.518433
2019-04-04T12:34:14.480Z,19.407654
2019-04-04T12:35:24.026Z,19.48822
2019-04-04T12:36:33.586Z,19.176025
2019-04-04T12:37:43.107Z,19.256592
2019-04-04T12:38:52.629Z,19.155884
2019-04-04T12:40:02.169Z,19.699707
2019-04-04T12:41:12.673Z,19.689636
2019-04-04T12:42:22.189Z,20.032043
2019-04-04T12:43:31.716Z,19.820557
2019-04-04T12:44:41.228Z,20.072327
2019-04-04T12:45:50.776Z,19.790344
2019-04-04T12:47:00.307Z,19.216309
2019-04-04T12:48:09.840Z,19.629211
2019-04-04T12:49:19.366Z,19.629211
2019-04-04T12:50:28.889Z,20.092468
2019-04-04T12:51:38.479Z,20.283813
2019-04-04T12:52:47.981Z,20.767212
2019-04-04T12:53:57.531Z,20.666504
2019-04-04T12:55:07.037Z,19.669495
2019-04-04T12:56:16.593Z,18.521423
2019-04-04T12:57:26.099Z,18.199158
2019-04-04T12:58:35.620Z,18.179016
2019-04-04T12:59:45.167Z,16.869812
2019-04-04T13:00:54.668Z,15.83252
2019-04-04T13:02:04.223Z,15.651245
2019-04-04T13:03:13.735Z,16.08429
2019-04-04T13:04:31.319Z,17.514343
2019-04-04T13:05:32.738Z,18.894043
2019-04-04T13:06:42.306Z,19.518433
2019-04-04T13:07:51.841Z,19.48822
2019-04-04T13:09:01.404Z,19.659424
2019-04-04T13:10:12.119Z,20.394592
2019-04-04T13:11:20.468Z,19.327087
2019-04-04T13:12:30.020Z,17.705688
2019-04-04T13:13:39.541Z,16.748962
2019-04-04T13:14:49.058Z,16.08429
2019-04-04T13:15:58.618Z,17.141724
2019-04-04T13:17:08.178Z,16.426697
2019-04-04T13:18:17.729Z,16.154785
2019-04-04T13:19:27.262Z,16.104431
2019-04-04T13:20:36.797Z,16.577759
2019-04-04T13:21:46.333Z,17.675476
2019-04-04T13:22:55.896Z,16.859741
2019-04-04T13:24:05.455Z,15.913086
2019-04-04T13:25:14.965Z,15.84259
2019-04-04T13:26:24.499Z,15.721741
2019-04-04T13:27:34.034Z,15.792236
2019-04-04T13:28:43.562Z,15.641174
2019-04-04T13:29:53.085Z,15.84259